Historique des mesures à Cassis (13260), France
Quotidien Résumé Septembre 7, 2017 Unités:  Métrique    US   Métrique/US
« Précédent (Jour)
Suivant (Jour) »
Quotidien Hebdomadaire Mensuel Annuel Période au choix
  Maximum: Minimum: Moyenne:
Température: TemperatureC °C 17.1 °C 20.6 °C
Point de rosée: DewpointC °C 7.7 °C 8.2 °C
Humidité: Humidity % 35 % 43 %
Vitesse du vent: 0 km/h 0 km/h 21.1 km/h
Rafales: 0 km/h - -
Vent:- - SW
Pression: PressurehPa hPa 1006.7 hPa -
Précipitations: 0.0 mm    
Historical Graphs
 
 
Mesures pour : Septembre 7, 2017
Heure Temperature Point de rosée Pression Vent Vitesse du vent Rafales Humidité Pluie (par heure) Conditions
TemperatureC °C DewpointC °C PressurehPa hPa Calm     Humidity % HourlyPrecipMM mm SoftwareType W/m2
00:11 22.2 °C 9.0 °C 1011.7 hPa West 15.6 km/h 16.9 km/h 43 % 0.0 mm open2300-1.11 W/m2
01:11 21.3 °C 9.2 °C 1011.1 hPa NNE 5.1 km/h 37 km/h 46 % 0.0 mm open2300-1.11 W/m2
02:11 20.7 °C 9.3 °C 1011.4 hPa Calm   6.4 km/h 48 % 0.0 mm open2300-1.11 W/m2
03:11 19.6 °C 8.9 °C 1011.4 hPa Calm   8.9 km/h 50 % 0.0 mm open2300-1.11 W/m2
04:11 18.5 °C 8.4 °C 1011.1 hPa NW 15.6 km/h 27.2 km/h 52 % 0.0 mm open2300-1.11 W/m2
06:11 17.5 °C 8.1 °C 1009.7 hPa NNW 16.9 km/h 30.1 km/h 54 % 0.0 mm open2300-1.11 W/m2
07:11 17.1 °C 7.7 °C 1009.7 hPa NNW 31.4 km/h 37 km/h 54 % 0.0 mm open2300-1.11 W/m2
08:11 17.3 °C 7.8 °C 1010.4 hPa NW 8.9 km/h 38.8 km/h 54 % 0.0 mm open2300-1.11 W/m2
09:11 18.0 °C 7.9 °C 1010.0 hPa NW 9.3 km/h 23.8 km/h 52 % 0.0 mm open2300-1.11 W/m2
10:11 19.2 °C 8.2 °C 1010.4 hPa NNW 8 km/h 14 km/h 49 % 0.0 mm open2300-1.11 W/m2
11:11 21.4 °C 8.6 °C 1010.0 hPa NW 13.2 km/h 24.8 km/h 44 % 0.0 mm open2300-1.11 W/m2
12:11 22.9 °C 8.6 °C 1010.0 hPa North 37.5 km/h 48.1 km/h 40 % 0.0 mm open2300-1.11 W/m2
13:11 24.1 °C 8.8 °C 1009.4 hPa NNW 27.7 km/h 34.1 km/h 38 % 0.0 mm open2300-1.11 W/m2
14:11 24.7 °C 9.0 °C 1008.7 hPa NNW 16.9 km/h 25.4 km/h 37 % 0.0 mm open2300-1.11 W/m2
15:11 25.0 °C 9.2 °C 1008.0 hPa NW 53.3 km/h 54.4 km/h 37 % 0.0 mm open2300-1.11 W/m2
16:11 25.4 °C 8.7 °C 1007.7 hPa North 40.7 km/h 40.7 km/h 35 % 0.0 mm open2300-1.11 W/m2
17:11 25.3 °C 9.1 °C 1007.0 hPa NW 54.4 km/h 59.5 km/h 36 % 0.0 mm open2300-1.11 W/m2
18:11 25.0 °C 8.4 °C 1006.7 hPa NW 48.6 km/h 48.6 km/h 35 % 0.0 mm open2300-1.11 W/m2
19:11 23.6 °C 8.4 °C 1006.7 hPa NNE 31.9 km/h 37 km/h 38 % 0.0 mm open2300-1.11 W/m2
20:11 22.4 °C 8.5 °C 1006.7 hPa NNE 20.9 km/h 20.9 km/h 41 % 0.0 mm open2300-1.11 W/m2
21:11 21.3 °C 8.5 °C 1007.7 hPa North 17.4 km/h 49.2 km/h 44 % 0.0 mm open2300-1.11 W/m2
22:11 20.8 °C 8.4 °C 1008.7 hPa SSE 10.3 km/h 10.3 km/h 45 % 0.0 mm open2300-1.11 W/m2
23:11 20.0 °C 8.3 °C 1008.0 hPa NW 22 km/h 30.1 km/h 47 % 0.0 mm open2300-1.11 W/m2
Observations météo à CASSIS
WU-History script by Weather Underground - 1 mb